GRZ579 Details

Departure: (PABE)
Arrival: (PAKN)
Route: BET J123 AKN


Current Weather Information
PABE 251153Z 32010KT 10SM CLR 08/07 A2994 RMK AO2 SLP139 T00830072 10150 20083 52008
PAKN 251212Z AUTO 00000KT 8SM BKN003 07/06 A2987 RMK AO2 T00720061 TSNO